Time;durP1;ratioP1;P1;durP2;ratioP2;P2;SDS_P1;SDS_P2;PMS_P1;PMS_P2;Temp;Humidity;BMP_temperature;BMP_pressure;BME280_temperature;BME280_humidity;BME280_pressure;Samples;Min_cycle;Max_cycle;Signal;HPM_P1;HPM_P2
2022/12/29 00:06:43;;;;;;;1999.90;999.90;;;11.90;99.90;;;;;;6694962;88;20206;-74
2022/12/29 00:16:45;;;;;;;1999.90;999.90;;;11.90;99.90;;;;;;6692747;88;20190;-75
2022/12/29 00:44:04;;;;;;;1999.90;999.90;;;11.90;99.90;;;;;;6695591;88;20335;-75
2022/12/29 00:47:47;;;;;;;1999.90;999.90;;;12.00;99.90;;;;;;6696621;88;20206;-76
2022/12/29 00:57:47;;;;;;;1999.90;999.90;;;12.10;99.90;;;;;;6696466;88;20260;-74
2022/12/29 01:07:48;;;;;;;1999.90;999.90;;;12.10;99.90;;;;;;6691829;88;20947;-75
2022/12/29 01:17:48;;;;;;;1999.90;999.90;;;12.30;99.90;;;;;;6695989;88;20242;-75
2022/12/29 01:27:49;;;;;;;1999.90;999.90;;;12.30;99.90;;;;;;6698650;88;20291;-75
2022/12/29 01:37:50;;;;;;;1999.90;999.90;;;12.40;99.90;;;;;;6706684;88;20595;-76
2022/12/29 01:47:57;;;;;;;1999.90;999.90;;;12.50;99.90;;;;;;6699301;88;20183;-75
2022/12/29 01:58:02;;;;;;;1999.90;999.90;;;12.50;99.90;;;;;;6695759;88;20278;-75
2022/12/29 02:08:03;;;;;;;1999.90;999.90;;;12.60;99.90;;;;;;6696402;88;20259;-74
2022/12/29 02:18:39;;;;;;;1999.90;999.90;;;12.60;99.90;;;;;;6696010;88;20415;-74
2022/12/29 02:28:59;;;;;;;1999.90;999.90;;;12.60;99.90;;;;;;6702313;88;20232;-75
2022/12/29 02:39:14;;;;;;;1999.90;999.90;;;12.60;99.90;;;;;;6693040;88;20211;-74
2022/12/29 02:49:41;;;;;;;1999.90;999.90;;;12.40;99.90;;;;;;6693985;88;20198;-75
2022/12/29 02:59:43;;;;;;;;;;;12.30;99.90;;;;;;6695140;88;20313;-75
2022/12/29 03:10:01;;;;;;;1999.90;999.90;;;12.30;99.90;;;;;;6694018;88;20499;-75
2022/12/29 03:20:14;;;;;;;1999.90;999.90;;;12.30;99.90;;;;;;6693362;88;20218;-75
2022/12/29 03:30:15;;;;;;;1999.90;999.90;;;12.30;99.90;;;;;;6696116;88;20178;-73
2022/12/29 03:40:16;;;;;;;1999.90;999.90;;;12.40;99.90;;;;;;6694189;88;20199;-74
2022/12/29 03:50:16;;;;;;;1999.90;999.90;;;12.50;99.90;;;;;;6695564;88;20217;-74
2022/12/29 04:00:17;;;;;;;1999.90;999.90;;;12.40;99.90;;;;;;6691265;88;20215;-74
2022/12/29 04:10:18;;;;;;;1999.90;999.90;;;12.40;99.90;;;;;;6696842;88;20715;-74
2022/12/29 04:30:38;;;;;;;1999.90;999.90;;;12.30;99.90;;;;;;6696659;88;20174;-74
2022/12/29 04:40:40;;;;;;;1999.90;999.90;;;12.10;99.90;;;;;;6696199;88;20645;-74
2022/12/29 04:50:41;;;;;;;1999.90;999.90;;;11.90;99.90;;;;;;6699759;88;20170;-74
2022/12/29 05:00:41;;;;;;;1999.90;999.90;;;12.00;99.90;;;;;;6697657;88;20390;-73
2022/12/29 05:10:45;;;;;;;1999.90;999.90;;;12.30;99.90;;;;;;6694705;88;20218;-74
2022/12/29 05:20:47;;;;;;;1999.90;999.90;;;12.20;99.90;;;;;;6698390;88;20206;-74
2022/12/29 05:30:51;;;;;;;1999.90;999.90;;;11.90;99.90;;;;;;6697766;88;20179;-75
2022/12/29 05:40:51;;;;;;;1999.90;999.90;;;11.70;99.90;;;;;;6701817;88;20382;-74
2022/12/29 05:51:12;;;;;;;1999.90;999.90;;;11.50;99.90;;;;;;6703724;77;20178;-77
2022/12/29 06:01:13;;;;;;;1999.90;999.90;;;11.60;99.90;;;;;;6636436;88;20633;-77
2022/12/29 06:11:14;;;;;;;1999.90;999.90;;;11.60;99.90;;;;;;6631128;88;20264;-78
2022/12/29 06:21:14;;;;;;;1999.90;999.90;;;11.40;99.90;;;;;;6630495;89;20192;-77
2022/12/29 06:31:15;;;;;;;1999.90;999.90;;;11.30;99.90;;;;;;6643049;88;20181;-76
2022/12/29 06:41:15;;;;;;;1999.90;999.90;;;11.10;99.90;;;;;;6638423;89;20217;-76
2022/12/29 06:51:16;;;;;;;1999.90;999.90;;;10.80;99.90;;;;;;6627406;88;20250;-76
2022/12/29 07:01:16;;;;;;;1999.90;999.90;;;10.80;99.90;;;;;;6628273;89;20621;-76
2022/12/29 07:11:17;;;;;;;1999.90;999.90;;;10.80;99.90;;;;;;6635802;88;20222;-75
2022/12/29 07:21:18;;;;;;;1999.90;999.90;;;10.70;99.90;;;;;;6632609;89;20209;-76
2022/12/29 07:31:21;;;;;;;1999.90;999.90;;;10.60;99.90;;;;;;6629648;88;20227;-74
2022/12/29 07:41:21;;;;;;;1999.90;999.90;;;10.80;99.90;;;;;;6637471;88;20279;-76
2022/12/29 07:51:22;;;;;;;1999.90;999.90;;;10.80;99.90;;;;;;6645260;88;20326;-76
2022/12/29 08:01:23;;;;;;;1999.90;999.90;;;10.90;99.90;;;;;;6636394;88;20587;-75
2022/12/29 08:11:23;;;;;;;1999.90;999.90;;;10.80;99.90;;;;;;6640861;88;20605;-76
2022/12/29 08:21:24;;;;;;;1999.90;999.90;;;10.90;99.90;;;;;;6632485;88;20200;-76
2022/12/29 08:31:25;;;;;;;1999.90;999.90;;;10.90;99.90;;;;;;6639524;88;21032;-77
2022/12/29 08:41:25;;;;;;;1999.90;999.90;;;10.90;99.90;;;;;;6641917;88;20185;-79
2022/12/29 08:51:26;;;;;;;1999.90;999.90;;;10.80;99.90;;;;;;6633411;88;20217;-79
2022/12/29 09:01:30;;;;;;;1999.90;999.90;;;11.10;99.90;;;;;;6636889;89;20206;-78
2022/12/29 09:11:30;;;;;;;1999.90;999.90;;;11.20;99.90;;;;;;6636392;88;20237;-76
2022/12/29 09:21:31;;;;;;;1999.90;999.90;;;11.30;99.90;;;;;;6628707;88;20181;-77
2022/12/29 09:31:32;;;;;;;1999.90;999.90;;;11.30;99.90;;;;;;6630716;89;20210;-77
2022/12/29 09:41:49;;;;;;;1999.90;999.90;;;11.40;99.90;;;;;;6631507;89;20184;-76
2022/12/29 09:51:53;;;;;;;1999.90;999.90;;;11.40;99.90;;;;;;6633175;89;20241;-77
2022/12/29 10:02:17;;;;;;;1999.90;999.90;;;11.50;99.90;;;;;;6632719;88;20229;-78
2022/12/29 10:12:52;;;;;;;1999.90;999.90;;;11.70;99.90;;;;;;6633295;89;20193;-79
2022/12/29 10:22:53;;;;;;;1999.90;999.90;;;12.40;99.90;;;;;;6636578;89;20189;-78
2022/12/29 10:32:58;;;;;;;1999.90;999.90;;;12.60;99.90;;;;;;6637370;89;20720;-78
2022/12/29 10:43:00;;;;;;;1999.90;999.90;;;12.70;99.90;;;;;;6650456;88;20205;-78
2022/12/29 10:53:05;;;;;;;1999.90;999.90;;;12.70;99.90;;;;;;6639250;89;20194;-78
2022/12/29 11:03:30;;;;;;;1999.90;999.90;;;13.10;99.90;;;;;;6620828;89;20625;-77
2022/12/29 11:13:34;;;;;;;1999.90;999.90;;;13.10;99.90;;;;;;6627836;89;20222;-79
2022/12/29 11:23:40;;;;;;;1999.90;999.90;;;12.70;99.90;;;;;;6639180;89;20262;-78
2022/12/29 11:33:40;;;;;;;1999.90;999.90;;;12.60;99.90;;;;;;6635643;89;20754;-78
2022/12/29 11:43:43;;;;;;;1999.90;999.90;;;12.80;99.90;;;;;;6640008;77;20322;-74
2022/12/29 11:53:47;;;;;;;1999.90;999.90;;;12.80;99.90;;;;;;6706550;88;20194;-75
2022/12/29 12:03:58;;;;;;;1999.90;999.90;;;12.80;99.90;;;;;;6713855;88;20178;-72
2022/12/29 12:14:02;;;;;;;1999.90;999.90;;;12.70;99.90;;;;;;6707376;88;20264;-74
2022/12/29 12:24:20;;;;;;;1999.90;999.90;;;12.60;99.90;;;;;;6709424;88;20182;-75
2022/12/29 12:34:31;;;;;;;1999.90;999.90;;;12.30;99.90;;;;;;6712745;88;20363;-74
2022/12/29 12:45:07;;;;;;;1999.90;999.90;;;12.30;99.90;;;;;;6703543;88;20307;-74
2022/12/29 12:55:44;;;;;;;1999.90;999.90;;;12.20;99.90;;;;;;6669170;88;20216;-74
2022/12/29 13:06:10;;;;;;;1999.90;999.90;;;12.30;99.90;;;;;;6713243;88;20196;-74
2022/12/29 13:16:59;;;;;;;1999.90;999.90;;;12.00;99.90;;;;;;6667164;88;20621;-74
2022/12/29 13:27:18;;;;;;;1999.90;999.90;;;11.90;99.90;;;;;;6666349;88;20237;-74
2022/12/29 13:37:22;;;;;;;1999.90;999.90;;;11.90;99.90;;;;;;6651974;88;20241;-76
2022/12/29 13:47:48;;;;;;;1999.90;999.90;;;12.10;99.90;;;;;;6667154;88;20200;-75
2022/12/29 13:58:13;;;;;;;1999.90;999.90;;;12.00;99.90;;;;;;6650122;88;20201;-76
2022/12/29 14:08:17;;;;;;;1999.90;999.90;;;12.00;99.90;;;;;;6651338;88;20216;-76
2022/12/29 14:18:21;;;;;;;1999.90;999.90;;;12.50;99.90;;;;;;6648308;88;20599;-76
2022/12/29 14:28:25;;;;;;;1999.90;999.90;;;12.90;99.90;;;;;;6667268;88;20237;-75
2022/12/29 14:38:29;;;;;;;1999.90;999.90;;;12.30;99.90;;;;;;6671723;88;20222;-75
2022/12/29 14:48:40;;;;;;;1999.90;999.90;;;12.30;99.90;;;;;;6655908;88;20201;-76
2022/12/29 14:58:47;;;;;;;1999.90;999.90;;;12.20;99.90;;;;;;6656686;89;20196;-76
2022/12/29 15:08:56;;;;;;;1999.90;999.90;;;12.00;99.90;;;;;;6665988;88;20209;-76
2022/12/29 15:18:58;;;;;;;1999.90;999.90;;;11.60;99.90;;;;;;6649878;88;20351;-76
2022/12/29 15:28:58;;;;;;;1999.90;999.90;;;11.20;99.90;;;;;;6667198;88;20607;-76
2022/12/29 15:38:59;;;;;;;1999.90;999.90;;;9.90;99.90;;;;;;6653456;88;20189;-76
2022/12/29 15:49:04;;;;;;;1999.90;999.90;;;9.60;99.90;;;;;;6658047;88;20355;-77
2022/12/29 15:59:04;;;;;;;1999.90;999.90;;;9.60;99.90;;;;;;6674971;88;20646;-76
2022/12/29 16:09:16;;;;;;;1999.90;999.90;;;9.40;99.90;;;;;;6660817;88;20219;-76
2022/12/29 16:19:34;;;;;;;1999.90;999.90;;;9.30;99.90;;;;;;6653654;88;20222;-75
2022/12/29 16:29:36;;;;;;;1999.90;999.90;;;9.30;99.90;;;;;;6653248;88;20308;-76
2022/12/29 16:39:39;;;;;;;1999.90;999.90;;;9.20;99.90;;;;;;6659035;88;20210;-75
2022/12/29 16:49:45;;;;;;;1999.90;999.90;;;9.10;99.90;;;;;;6678811;88;20207;-73
2022/12/29 16:59:46;;;;;;;1999.90;999.90;;;9.20;99.90;;;;;;6672981;88;20239;-74
2022/12/29 17:09:46;;;;;;;1999.90;999.90;;;9.00;99.90;;;;;;6654776;88;20367;-74
2022/12/29 17:19:54;;;;;;;1999.90;999.90;;;9.00;99.90;;;;;;6678388;88;20193;-74
2022/12/29 17:30:02;;;;;;;1999.90;999.90;;;9.10;99.90;;;;;;6646711;89;20222;-74
2022/12/29 17:40:06;;;;;;;1999.90;999.90;;;9.10;99.90;;;;;;6651135;88;20652;-75
2022/12/29 17:50:28;;;;;;;1999.90;999.90;;;9.20;99.90;;;;;;6694054;77;20178;-80
2022/12/29 18:00:30;;;;;;;1999.90;999.90;;;9.00;99.90;;;;;;6727851;88;20185;-79
2022/12/29 18:10:30;;;;;;;1999.90;999.90;;;9.00;99.90;;;;;;6719062;88;20190;-79
2022/12/29 18:20:31;;;;;;;1999.90;999.90;;;9.00;99.90;;;;;;6716067;88;20210;-78
2022/12/29 18:30:32;;;;;;;1999.90;999.90;;;9.00;99.90;;;;;;6707124;88;20561;-78
2022/12/29 18:40:34;;;;;;;1999.90;999.90;;;8.90;99.90;;;;;;6707791;88;20310;-78
2022/12/29 18:50:35;;;;;;;1999.90;999.90;;;8.90;99.90;;;;;;6701775;88;20178;-77
2022/12/29 19:00:35;;;;;;;1999.90;999.90;;;9.10;99.90;;;;;;6706482;88;20187;-79
2022/12/29 19:10:37;;;;;;;1999.90;999.90;;;9.10;99.90;;;;;;6701680;88;20239;-76
2022/12/29 19:20:40;;;;;;;1999.90;999.90;;;9.10;99.90;;;;;;6697993;88;20535;-76
2022/12/29 19:30:41;;;;;;;1999.90;999.90;;;9.20;99.90;;;;;;6697180;88;20232;-77
2022/12/29 19:40:48;;;;;;;1999.90;999.90;;;9.40;99.90;;;;;;6696828;88;20187;-77
2022/12/29 19:50:48;;;;;;;1999.90;999.90;;;9.20;99.90;;;;;;6697708;88;20209;-78
2022/12/29 20:00:50;;;;;;;1999.90;999.90;;;9.00;99.90;;;;;;6700981;88;20229;-77
2022/12/29 20:11:05;;;;;;;1999.90;999.90;;;9.00;99.90;;;;;;6698671;88;20336;-77
2022/12/29 20:21:10;;;;;;;1999.90;999.90;;;8.90;99.90;;;;;;6707751;88;20289;-77
2022/12/29 20:31:22;;;;;;;1999.90;999.90;;;8.70;99.90;;;;;;6717649;88;20186;-76
2022/12/29 20:41:22;;;;;;;1999.90;999.90;;;8.30;99.90;;;;;;6701559;88;20194;-76
2022/12/29 20:51:24;;;;;;;1999.90;999.90;;;8.20;99.90;;;;;;6703666;88;20217;-76
2022/12/29 21:01:25;;;;;;;1999.90;999.90;;;8.20;99.90;;;;;;6699359;88;20258;-76
2022/12/29 21:11:26;;;;;;;1999.90;999.90;;;8.10;99.90;;;;;;6700712;88;20645;-77
2022/12/29 21:21:27;;;;;;;1999.90;999.90;;;8.00;99.90;;;;;;6700575;88;20195;-77
2022/12/29 21:31:31;;;;;;;1999.90;999.90;;;7.80;99.90;;;;;;6702584;88;20232;-76
2022/12/29 21:41:32;;;;;;;1999.90;999.90;;;7.90;99.90;;;;;;6704572;88;20191;-77
2022/12/29 21:51:52;;;;;;;1999.90;999.90;;;7.90;99.90;;;;;;6706029;88;20576;-77
2022/12/29 22:22:31;;;;;;;1999.90;999.90;;;7.70;99.90;;;;;;6701505;88;20187;-77
2022/12/29 22:32:32;;;;;;;1999.90;999.90;;;7.60;99.90;;;;;;6702489;88;20333;-76
2022/12/29 22:42:33;;;;;;;1999.90;999.90;;;7.50;99.90;;;;;;6704070;88;20214;-76
2022/12/29 22:52:34;;;;;;;1999.90;999.90;;;7.20;99.90;;;;;;6699162;88;20332;-76
2022/12/29 23:02:35;;;;;;;1999.90;999.90;;;7.10;99.90;;;;;;6696003;88;20515;-76
2022/12/29 23:12:35;;;;;;;1999.90;999.90;;;7.20;99.90;;;;;;6700725;88;20208;-75
2022/12/29 23:22:36;;;;;;;1999.90;999.90;;;6.90;99.90;;;;;;6698717;88;20206;-77
2022/12/29 23:32:36;;;;;;;1999.90;999.90;;;7.10;99.90;;;;;;6699408;88;20211;-76
2022/12/29 23:42:37;;;;;;;1999.90;999.90;;;7.30;99.90;;;;;;6697711;88;20628;-77
2022/12/29 23:52:37;;;;;;;1999.90;999.90;;;7.20;99.90;;;;;;6706653;88;20199;-76
